sensor_id;sensor_type;location;lat;lon;timestamp;P1;durP1;ratioP1;P2;durP2;ratioP2
23617;SDS011;18207;32.078;34.818;2023-09-08T00:01:44;1.83;;;1.60;;
23617;SDS011;18207;32.078;34.818;2023-09-08T00:04:15;2.10;;;1.80;;
23617;SDS011;18207;32.078;34.818;2023-09-08T00:06:46;1.83;;;1.70;;
23617;SDS011;18207;32.078;34.818;2023-09-08T00:09:17;1.73;;;1.63;;
23617;SDS011;18207;32.078;34.818;2023-09-08T00:11:47;1.80;;;1.70;;
23617;SDS011;18207;32.078;34.818;2023-09-08T00:14:19;1.80;;;1.70;;
23617;SDS011;18207;32.078;34.818;2023-09-08T00:16:51;1.73;;;1.63;;
23617;SDS011;18207;32.078;34.818;2023-09-08T00:19:23;1.98;;;1.88;;
23617;SDS011;18207;32.078;34.818;2023-09-08T00:21:52;1.58;;;1.48;;
23617;SDS011;18207;32.078;34.818;2023-09-08T00:24:23;1.80;;;1.70;;
23617;SDS011;18207;32.078;34.818;2023-09-08T00:26:53;1.70;;;1.60;;
23617;SDS011;18207;32.078;34.818;2023-09-08T00:29:26;1.73;;;1.60;;
23617;SDS011;18207;32.078;34.818;2023-09-08T00:31:57;1.60;;;1.50;;
23617;SDS011;18207;32.078;34.818;2023-09-08T00:34:27;1.20;;;1.20;;
23617;SDS011;18207;32.078;34.818;2023-09-08T00:36:57;1.90;;;1.80;;
23617;SDS011;18207;32.078;34.818;2023-09-08T00:39:32;1.52;;;1.42;;
23617;SDS011;18207;32.078;34.818;2023-09-08T00:42:04;1.58;;;1.55;;
23617;SDS011;18207;32.078;34.818;2023-09-08T00:44:37;1.50;;;1.40;;
23617;SDS011;18207;32.078;34.818;2023-09-08T00:47:07;1.60;;;1.50;;
23617;SDS011;18207;32.078;34.818;2023-09-08T00:49:37;1.63;;;1.52;;
23617;SDS011;18207;32.078;34.818;2023-09-08T00:52:07;1.83;;;1.73;;
23617;SDS011;18207;32.078;34.818;2023-09-08T00:54:37;1.85;;;1.73;;
23617;SDS011;18207;32.078;34.818;2023-09-08T00:57:07;1.80;;;1.70;;
23617;SDS011;18207;32.078;34.818;2023-09-08T00:59:41;2.72;;;1.90;;
23617;SDS011;18207;32.078;34.818;2023-09-08T01:02:13;2.90;;;1.80;;
23617;SDS011;18207;32.078;34.818;2023-09-08T01:04:47;1.70;;;1.60;;
23617;SDS011;18207;32.078;34.818;2023-09-08T01:07:18;2.33;;;1.80;;
23617;SDS011;18207;32.078;34.818;2023-09-08T01:09:49;1.92;;;1.67;;
23617;SDS011;18207;32.078;34.818;2023-09-08T01:12:20;1.55;;;1.45;;
23617;SDS011;18207;32.078;34.818;2023-09-08T01:14:53;1.80;;;1.70;;
23617;SDS011;18207;32.078;34.818;2023-09-08T01:17:23;1.70;;;1.55;;
23617;SDS011;18207;32.078;34.818;2023-09-08T01:19:54;2.25;;;1.70;;
23617;SDS011;18207;32.078;34.818;2023-09-08T01:22:36;1.83;;;1.73;;
23617;SDS011;18207;32.078;34.818;2023-09-08T01:25:32;1.48;;;1.40;;
23617;SDS011;18207;32.078;34.818;2023-09-08T01:28:09;1.88;;;1.77;;
23617;SDS011;18207;32.078;34.818;2023-09-08T01:30:42;1.63;;;1.52;;
23617;SDS011;18207;32.078;34.818;2023-09-08T01:33:14;2.40;;;1.60;;
23617;SDS011;18207;32.078;34.818;2023-09-08T01:35:45;1.98;;;1.75;;
23617;SDS011;18207;32.078;34.818;2023-09-08T01:38:16;1.67;;;1.58;;
23617;SDS011;18207;32.078;34.818;2023-09-08T01:40:48;1.90;;;1.80;;
23617;SDS011;18207;32.078;34.818;2023-09-08T01:43:18;2.05;;;1.88;;
23617;SDS011;18207;32.078;34.818;2023-09-08T01:45:49;2.53;;;1.73;;
23617;SDS011;18207;32.078;34.818;2023-09-08T01:48:19;2.05;;;1.77;;
23617;SDS011;18207;32.078;34.818;2023-09-08T01:50:50;2.15;;;1.98;;
23617;SDS011;18207;32.078;34.818;2023-09-08T01:53:20;1.70;;;1.60;;
23617;SDS011;18207;32.078;34.818;2023-09-08T01:55:52;2.08;;;1.88;;
23617;SDS011;18207;32.078;34.818;2023-09-08T01:58:22;1.90;;;1.80;;
23617;SDS011;18207;32.078;34.818;2023-09-08T02:00:52;2.28;;;2.15;;
23617;SDS011;18207;32.078;34.818;2023-09-08T02:03:27;2.10;;;2.00;;
23617;SDS011;18207;32.078;34.818;2023-09-08T02:05:57;2.00;;;1.90;;
23617;SDS011;18207;32.078;34.818;2023-09-08T02:08:27;2.50;;;2.13;;
23617;SDS011;18207;32.078;34.818;2023-09-08T02:11:00;2.17;;;2.03;;
23617;SDS011;18207;32.078;34.818;2023-09-08T02:13:29;2.30;;;2.10;;
23617;SDS011;18207;32.078;34.818;2023-09-08T02:15:59;3.17;;;2.25;;
23617;SDS011;18207;32.078;34.818;2023-09-08T02:18:29;2.38;;;2.17;;
23617;SDS011;18207;32.078;34.818;2023-09-08T02:21:00;2.92;;;2.03;;
23617;SDS011;18207;32.078;34.818;2023-09-08T02:23:30;2.28;;;2.00;;
23617;SDS011;18207;32.078;34.818;2023-09-08T02:26:02;2.35;;;2.15;;
23617;SDS011;18207;32.078;34.818;2023-09-08T02:28:37;1.95;;;1.80;;
23617;SDS011;18207;32.078;34.818;2023-09-08T02:31:07;1.92;;;1.83;;
23617;SDS011;18207;32.078;34.818;2023-09-08T02:33:37;2.08;;;1.88;;
23617;SDS011;18207;32.078;34.818;2023-09-08T02:36:07;2.05;;;1.95;;
23617;SDS011;18207;32.078;34.818;2023-09-08T02:38:38;2.20;;;2.00;;
23617;SDS011;18207;32.078;34.818;2023-09-08T02:41:10;2.30;;;2.10;;
23617;SDS011;18207;32.078;34.818;2023-09-08T02:43:40;2.38;;;2.10;;
23617;SDS011;18207;32.078;34.818;2023-09-08T02:46:11;2.38;;;2.20;;
23617;SDS011;18207;32.078;34.818;2023-09-08T02:48:41;2.90;;;2.22;;
23617;SDS011;18207;32.078;34.818;2023-09-08T02:51:11;2.50;;;2.30;;
23617;SDS011;18207;32.078;34.818;2023-09-08T02:53:41;3.70;;;2.60;;
23617;SDS011;18207;32.078;34.818;2023-09-08T02:56:13;2.53;;;2.33;;
23617;SDS011;18207;32.078;34.818;2023-09-08T02:58:43;2.75;;;2.47;;
23617;SDS011;18207;32.078;34.818;2023-09-08T03:01:14;2.55;;;2.35;;
23617;SDS011;18207;32.078;34.818;2023-09-08T03:03:47;2.42;;;2.22;;
23617;SDS011;18207;32.078;34.818;2023-09-08T03:06:18;2.50;;;2.30;;
23617;SDS011;18207;32.078;34.818;2023-09-08T03:08:49;2.53;;;2.10;;
23617;SDS011;18207;32.078;34.818;2023-09-08T03:11:21;2.60;;;2.10;;
23617;SDS011;18207;32.078;34.818;2023-09-08T03:13:52;2.45;;;2.25;;
23617;SDS011;18207;32.078;34.818;2023-09-08T03:16:23;2.05;;;1.95;;
23617;SDS011;18207;32.078;34.818;2023-09-08T03:18:53;2.08;;;1.90;;
23617;SDS011;18207;32.078;34.818;2023-09-08T03:21:23;1.92;;;1.80;;
23617;SDS011;18207;32.078;34.818;2023-09-08T03:23:54;1.92;;;1.80;;
23617;SDS011;18207;32.078;34.818;2023-09-08T03:26:26;3.00;;;2.00;;
23617;SDS011;18207;32.078;34.818;2023-09-08T03:28:57;2.17;;;1.73;;
23617;SDS011;18207;32.078;34.818;2023-09-08T03:31:27;2.53;;;1.83;;
23617;SDS011;18207;32.078;34.818;2023-09-08T03:33:57;1.77;;;1.67;;
23617;SDS011;18207;32.078;34.818;2023-09-08T03:36:28;2.53;;;1.65;;
23617;SDS011;18207;32.078;34.818;2023-09-08T03:38:58;1.77;;;1.67;;
23617;SDS011;18207;32.078;34.818;2023-09-08T03:41:30;1.60;;;1.50;;
23617;SDS011;18207;32.078;34.818;2023-09-08T03:44:00;1.80;;;1.70;;
23617;SDS011;18207;32.078;34.818;2023-09-08T03:46:30;1.50;;;1.40;;
23617;SDS011;18207;32.078;34.818;2023-09-08T03:49:00;1.67;;;1.58;;
23617;SDS011;18207;32.078;34.818;2023-09-08T03:51:31;1.80;;;1.70;;
23617;SDS011;18207;32.078;34.818;2023-09-08T03:54:01;2.63;;;2.00;;
23617;SDS011;18207;32.078;34.818;2023-09-08T03:56:33;2.33;;;2.10;;
23617;SDS011;18207;32.078;34.818;2023-09-08T03:59:03;2.38;;;2.10;;
23617;SDS011;18207;32.078;34.818;2023-09-08T04:01:34;2.50;;;2.17;;
23617;SDS011;18207;32.078;34.818;2023-09-08T04:04:04;3.38;;;2.40;;
23617;SDS011;18207;32.078;34.818;2023-09-08T04:06:34;2.85;;;2.53;;
23617;SDS011;18207;32.078;34.818;2023-09-08T04:09:07;4.05;;;2.70;;
23617;SDS011;18207;32.078;34.818;2023-09-08T04:11:39;3.63;;;2.83;;
23617;SDS011;18207;32.078;34.818;2023-09-08T04:14:09;3.28;;;2.90;;
23617;SDS011;18207;32.078;34.818;2023-09-08T04:16:39;5.03;;;3.05;;
23617;SDS011;18207;32.078;34.818;2023-09-08T04:19:09;3.78;;;2.80;;
23617;SDS011;18207;32.078;34.818;2023-09-08T04:21:40;3.78;;;2.97;;
23617;SDS011;18207;32.078;34.818;2023-09-08T04:24:12;3.70;;;3.20;;
23617;SDS011;18207;32.078;34.818;2023-09-08T04:26:46;2.85;;;2.63;;
23617;SDS011;18207;32.078;34.818;2023-09-08T04:29:17;3.83;;;2.67;;
23617;SDS011;18207;32.078;34.818;2023-09-08T04:31:48;3.33;;;2.78;;
23617;SDS011;18207;32.078;34.818;2023-09-08T04:34:32;3.00;;;2.60;;
23617;SDS011;18207;32.078;34.818;2023-09-08T04:37:02;2.90;;;2.65;;
23617;SDS011;18207;32.078;34.818;2023-09-08T04:39:32;3.50;;;2.70;;
23617;SDS011;18207;32.078;34.818;2023-09-08T04:42:07;3.58;;;2.80;;
23617;SDS011;18207;32.078;34.818;2023-09-08T04:44:37;3.33;;;2.65;;
23617;SDS011;18207;32.078;34.818;2023-09-08T04:47:08;3.10;;;2.42;;
23617;SDS011;18207;32.078;34.818;2023-09-08T04:49:38;3.40;;;2.72;;
23617;SDS011;18207;32.078;34.818;2023-09-08T04:52:09;3.03;;;2.83;;
23617;SDS011;18207;32.078;34.818;2023-09-08T04:54:40;3.50;;;2.55;;
23617;SDS011;18207;32.078;34.818;2023-09-08T04:57:12;3.45;;;2.70;;
23617;SDS011;18207;32.078;34.818;2023-09-08T04:59:49;2.75;;;2.30;;
23617;SDS011;18207;32.078;34.818;2023-09-08T05:02:19;3.35;;;2.70;;
23617;SDS011;18207;32.078;34.818;2023-09-08T05:04:49;2.92;;;2.58;;
23617;SDS011;18207;32.078;34.818;2023-09-08T05:07:19;2.85;;;2.58;;
23617;SDS011;18207;32.078;34.818;2023-09-08T05:09:49;2.65;;;2.45;;
23617;SDS011;18207;32.078;34.818;2023-09-08T05:12:25;2.53;;;2.30;;
23617;SDS011;18207;32.078;34.818;2023-09-08T05:15:02;2.53;;;2.28;;
23617;SDS011;18207;32.078;34.818;2023-09-08T05:17:37;3.15;;;2.50;;
23617;SDS011;18207;32.078;34.818;2023-09-08T05:20:08;2.63;;;2.42;;
23617;SDS011;18207;32.078;34.818;2023-09-08T05:22:38;3.13;;;2.50;;
23617;SDS011;18207;32.078;34.818;2023-09-08T05:25:09;2.67;;;2.45;;
23617;SDS011;18207;32.078;34.818;2023-09-08T05:27:41;3.20;;;2.60;;
23617;SDS011;18207;32.078;34.818;2023-09-08T05:30:12;2.63;;;2.20;;
23617;SDS011;18207;32.078;34.818;2023-09-08T05:32:42;2.85;;;2.10;;
23617;SDS011;18207;32.078;34.818;2023-09-08T05:35:13;2.40;;;2.20;;
23617;SDS011;18207;32.078;34.818;2023-09-08T05:37:43;2.63;;;2.40;;
23617;SDS011;18207;32.078;34.818;2023-09-08T05:40:13;2.20;;;2.00;;
23617;SDS011;18207;32.078;34.818;2023-09-08T05:42:47;1.90;;;1.80;;
23617;SDS011;18207;32.078;34.818;2023-09-08T05:45:18;2.28;;;2.05;;
23617;SDS011;18207;32.078;34.818;2023-09-08T05:47:47;2.33;;;2.13;;
23617;SDS011;18207;32.078;34.818;2023-09-08T05:50:18;2.10;;;1.90;;
23617;SDS011;18207;32.078;34.818;2023-09-08T05:52:48;1.80;;;1.70;;
23617;SDS011;18207;32.078;34.818;2023-09-08T05:55:19;2.00;;;1.83;;
23617;SDS011;18207;32.078;34.818;2023-09-08T05:57:51;2.13;;;1.92;;
23617;SDS011;18207;32.078;34.818;2023-09-08T06:00:21;1.90;;;1.70;;
23617;SDS011;18207;32.078;34.818;2023-09-08T06:02:51;1.70;;;1.60;;
23617;SDS011;18207;32.078;34.818;2023-09-08T06:05:22;2.00;;;1.80;;
23617;SDS011;18207;32.078;34.818;2023-09-08T06:07:52;1.70;;;1.60;;
23617;SDS011;18207;32.078;34.818;2023-09-08T06:10:32;1.70;;;1.60;;
23617;SDS011;18207;32.078;34.818;2023-09-08T06:13:05;1.65;;;1.55;;
23617;SDS011;18207;32.078;34.818;2023-09-08T06:15:35;1.75;;;1.65;;
23617;SDS011;18207;32.078;34.818;2023-09-08T06:18:06;1.80;;;1.70;;
23617;SDS011;18207;32.078;34.818;2023-09-08T06:20:36;1.83;;;1.73;;
23617;SDS011;18207;32.078;34.818;2023-09-08T06:23:12;1.90;;;1.80;;
23617;SDS011;18207;32.078;34.818;2023-09-08T06:25:43;1.75;;;1.65;;
23617;SDS011;18207;32.078;34.818;2023-09-08T06:28:16;1.70;;;1.60;;
23617;SDS011;18207;32.078;34.818;2023-09-08T06:30:47;1.80;;;1.70;;
23617;SDS011;18207;32.078;34.818;2023-09-08T06:33:17;2.00;;;1.80;;
23617;SDS011;18207;32.078;34.818;2023-09-08T06:35:49;1.63;;;1.52;;
23617;SDS011;18207;32.078;34.818;2023-09-08T06:38:20;1.50;;;1.42;;
23617;SDS011;18207;32.078;34.818;2023-09-08T06:40:51;1.67;;;1.58;;
23617;SDS011;18207;32.078;34.818;2023-09-08T06:43:22;1.70;;;1.60;;
23617;SDS011;18207;32.078;34.818;2023-09-08T06:45:53;1.45;;;1.35;;
23617;SDS011;18207;32.078;34.818;2023-09-08T06:48:23;1.70;;;1.60;;
23617;SDS011;18207;32.078;34.818;2023-09-08T06:50:53;1.67;;;1.40;;
23617;SDS011;18207;32.078;34.818;2023-09-08T06:53:24;1.45;;;1.40;;
23617;SDS011;18207;32.078;34.818;2023-09-08T06:55:55;1.50;;;1.40;;
23617;SDS011;18207;32.078;34.818;2023-09-08T06:58:26;1.63;;;1.52;;
23617;SDS011;18207;32.078;34.818;2023-09-08T07:00:56;1.83;;;1.42;;
23617;SDS011;18207;32.078;34.818;2023-09-08T07:03:26;1.65;;;1.52;;
23617;SDS011;18207;32.078;34.818;2023-09-08T07:06:04;1.60;;;1.50;;
23617;SDS011;18207;32.078;34.818;2023-09-08T07:08:37;1.60;;;1.50;;
23617;SDS011;18207;32.078;34.818;2023-09-08T07:11:07;1.45;;;1.35;;
23617;SDS011;18207;32.078;34.818;2023-09-08T07:13:42;1.52;;;1.42;;
23617;SDS011;18207;32.078;34.818;2023-09-08T07:16:13;1.60;;;1.50;;
23617;SDS011;18207;32.078;34.818;2023-09-08T07:18:44;1.55;;;1.45;;
23617;SDS011;18207;32.078;34.818;2023-09-08T07:21:14;1.52;;;1.42;;
23617;SDS011;18207;32.078;34.818;2023-09-08T07:23:44;1.58;;;1.48;;
23617;SDS011;18207;32.078;34.818;2023-09-08T07:26:14;1.40;;;1.30;;
23617;SDS011;18207;32.078;34.818;2023-09-08T07:28:47;1.50;;;1.40;;
23617;SDS011;18207;32.078;34.818;2023-09-08T07:31:18;1.58;;;1.40;;
23617;SDS011;18207;32.078;34.818;2023-09-08T07:33:49;1.60;;;1.50;;
23617;SDS011;18207;32.078;34.818;2023-09-08T07:36:19;1.60;;;1.50;;
23617;SDS011;18207;32.078;34.818;2023-09-08T07:38:49;1.10;;;1.10;;
23617;SDS011;18207;32.078;34.818;2023-09-08T07:41:20;1.92;;;1.30;;
23617;SDS011;18207;32.078;34.818;2023-09-08T07:43:52;1.67;;;1.45;;
23617;SDS011;18207;32.078;34.818;2023-09-08T07:46:23;1.42;;;1.33;;
23617;SDS011;18207;32.078;34.818;2023-09-08T07:48:53;2.40;;;1.50;;
23617;SDS011;18207;32.078;34.818;2023-09-08T07:51:23;1.67;;;1.50;;
23617;SDS011;18207;32.078;34.818;2023-09-08T07:53:58;1.40;;;1.30;;
23617;SDS011;18207;32.078;34.818;2023-09-08T07:56:30;1.90;;;1.50;;
23617;SDS011;18207;32.078;34.818;2023-09-08T07:59:03;1.92;;;1.38;;
23617;SDS011;18207;32.078;34.818;2023-09-08T08:01:33;1.23;;;1.13;;
23617;SDS011;18207;32.078;34.818;2023-09-08T08:04:04;1.00;;;1.00;;
23617;SDS011;18207;32.078;34.818;2023-09-08T08:06:34;1.38;;;1.27;;
23617;SDS011;18207;32.078;34.818;2023-09-08T08:09:06;1.40;;;1.20;;
23617;SDS011;18207;32.078;34.818;2023-09-08T08:11:37;0.90;;;0.90;;
23617;SDS011;18207;32.078;34.818;2023-09-08T08:14:09;0.90;;;0.90;;
23617;SDS011;18207;32.078;34.818;2023-09-08T08:16:40;1.23;;;1.23;;
23617;SDS011;18207;32.078;34.818;2023-09-08T08:19:11;1.17;;;1.08;;
23617;SDS011;18207;32.078;34.818;2023-09-08T08:21:41;1.25;;;1.17;;
23617;SDS011;18207;32.078;34.818;2023-09-08T08:24:11;1.45;;;1.35;;
23617;SDS011;18207;32.078;34.818;2023-09-08T08:26:42;1.23;;;1.13;;
23617;SDS011;18207;32.078;34.818;2023-09-08T08:29:13;1.40;;;1.30;;
23617;SDS011;18207;32.078;34.818;2023-09-08T08:31:44;1.38;;;1.25;;
23617;SDS011;18207;32.078;34.818;2023-09-08T08:34:14;1.42;;;1.30;;
23617;SDS011;18207;32.078;34.818;2023-09-08T08:36:44;1.08;;;0.98;;
23617;SDS011;18207;32.078;34.818;2023-09-08T08:39:15;0.75;;;0.75;;
23617;SDS011;18207;32.078;34.818;2023-09-08T08:41:45;1.00;;;0.90;;
23617;SDS011;18207;32.078;34.818;2023-09-08T08:44:17;1.38;;;1.27;;
23617;SDS011;18207;32.078;34.818;2023-09-08T08:46:49;0.88;;;0.88;;
23617;SDS011;18207;32.078;34.818;2023-09-08T08:49:23;1.25;;;1.25;;
23617;SDS011;18207;32.078;34.818;2023-09-08T08:51:53;0.90;;;0.90;;
23617;SDS011;18207;32.078;34.818;2023-09-08T08:54:27;0.90;;;0.90;;
23617;SDS011;18207;32.078;34.818;2023-09-08T08:56:59;1.38;;;1.13;;
23617;SDS011;18207;32.078;34.818;2023-09-08T08:59:32;0.90;;;0.90;;
23617;SDS011;18207;32.078;34.818;2023-09-08T09:02:04;1.10;;;1.00;;
23617;SDS011;18207;32.078;34.818;2023-09-08T09:04:36;1.20;;;1.10;;
23617;SDS011;18207;32.078;34.818;2023-09-08T09:07:07;1.13;;;1.10;;
23617;SDS011;18207;32.078;34.818;2023-09-08T09:09:37;1.27;;;1.10;;
23617;SDS011;18207;32.078;34.818;2023-09-08T09:12:08;0.93;;;0.93;;
23617;SDS011;18207;32.078;34.818;2023-09-08T09:14:40;0.80;;;0.80;;
23617;SDS011;18207;32.078;34.818;2023-09-08T09:17:15;1.70;;;1.00;;
23617;SDS011;18207;32.078;34.818;2023-09-08T09:19:46;1.20;;;1.10;;
23617;SDS011;18207;32.078;34.818;2023-09-08T09:22:19;1.25;;;1.20;;
23617;SDS011;18207;32.078;34.818;2023-09-08T09:24:52;1.20;;;1.10;;
23617;SDS011;18207;32.078;34.818;2023-09-08T09:27:28;1.05;;;1.05;;
23617;SDS011;18207;32.078;34.818;2023-09-08T09:30:05;1.30;;;1.20;;
23617;SDS011;18207;32.078;34.818;2023-09-08T09:32:38;1.00;;;0.93;;
23617;SDS011;18207;32.078;34.818;2023-09-08T09:35:19;1.20;;;1.20;;
23617;SDS011;18207;32.078;34.818;2023-09-08T09:37:49;1.70;;;1.60;;
23617;SDS011;18207;32.078;34.818;2023-09-08T09:40:21;1.90;;;1.80;;
23617;SDS011;18207;32.078;34.818;2023-09-08T09:42:52;1.58;;;1.48;;
23617;SDS011;18207;32.078;34.818;2023-09-08T09:45:26;1.55;;;1.45;;
23617;SDS011;18207;32.078;34.818;2023-09-08T09:47:57;2.58;;;1.67;;
23617;SDS011;18207;32.078;34.818;2023-09-08T09:50:29;1.40;;;1.30;;
23617;SDS011;18207;32.078;34.818;2023-09-08T09:53:01;1.23;;;1.23;;
23617;SDS011;18207;32.078;34.818;2023-09-08T09:55:38;1.40;;;1.30;;
23617;SDS011;18207;32.078;34.818;2023-09-08T09:58:10;1.45;;;1.35;;
23617;SDS011;18207;32.078;34.818;2023-09-08T10:00:44;1.20;;;1.10;;
23617;SDS011;18207;32.078;34.818;2023-09-08T10:03:16;1.20;;;1.20;;
23617;SDS011;18207;32.078;34.818;2023-09-08T10:05:48;1.25;;;1.15;;
23617;SDS011;18207;32.078;34.818;2023-09-08T10:08:22;1.30;;;1.30;;
23617;SDS011;18207;32.078;34.818;2023-09-08T10:10:52;0.90;;;0.90;;
23617;SDS011;18207;32.078;34.818;2023-09-08T10:13:23;0.95;;;0.95;;
23617;SDS011;18207;32.078;34.818;2023-09-08T10:15:59;0.98;;;0.95;;
23617;SDS011;18207;32.078;34.818;2023-09-08T10:18:34;1.30;;;1.20;;
23617;SDS011;18207;32.078;34.818;2023-09-08T10:21:07;2.38;;;1.02;;
23617;SDS011;18207;32.078;34.818;2023-09-08T10:23:42;0.77;;;0.77;;
23617;SDS011;18207;32.078;34.818;2023-09-08T10:26:24;1.13;;;1.02;;
23617;SDS011;18207;32.078;34.818;2023-09-08T10:28:59;1.10;;;1.00;;
23617;SDS011;18207;32.078;34.818;2023-09-08T10:31:32;1.00;;;1.00;;
23617;SDS011;18207;32.078;34.818;2023-09-08T10:34:03;1.10;;;1.00;;
23617;SDS011;18207;32.078;34.818;2023-09-08T10:36:34;0.73;;;0.73;;
23617;SDS011;18207;32.078;34.818;2023-09-08T10:42:21;0.90;;;0.90;;
23617;SDS011;18207;32.078;34.818;2023-09-08T10:45:01;0.98;;;0.82;;
23617;SDS011;18207;32.078;34.818;2023-09-08T10:47:58;0.57;;;0.57;;
23617;SDS011;18207;32.078;34.818;2023-09-08T10:50:38;0.70;;;0.70;;
23617;SDS011;18207;32.078;34.818;2023-09-08T10:53:12;0.85;;;0.77;;
23617;SDS011;18207;32.078;34.818;2023-09-08T10:55:45;0.80;;;0.73;;
23617;SDS011;18207;32.078;34.818;2023-09-08T10:58:38;0.80;;;0.80;;
23617;SDS011;18207;32.078;34.818;2023-09-08T11:01:12;0.68;;;0.68;;
23617;SDS011;18207;32.078;34.818;2023-09-08T11:03:50;0.82;;;0.82;;
23617;SDS011;18207;32.078;34.818;2023-09-08T11:06:21;0.80;;;0.80;;
23617;SDS011;18207;32.078;34.818;2023-09-08T11:08:57;0.80;;;0.80;;
23617;SDS011;18207;32.078;34.818;2023-09-08T11:11:36;0.70;;;0.70;;
23617;SDS011;18207;32.078;34.818;2023-09-08T11:14:09;0.70;;;0.70;;
23617;SDS011;18207;32.078;34.818;2023-09-08T11:16:39;0.60;;;0.60;;
23617;SDS011;18207;32.078;34.818;2023-09-08T11:19:12;0.90;;;0.70;;
23617;SDS011;18207;32.078;34.818;2023-09-08T11:21:42;0.60;;;0.60;;
23617;SDS011;18207;32.078;34.818;2023-09-08T11:24:13;1.00;;;1.00;;
23617;SDS011;18207;32.078;34.818;2023-09-08T11:26:45;1.02;;;0.80;;
23617;SDS011;18207;32.078;34.818;2023-09-08T11:29:17;0.70;;;0.70;;
23617;SDS011;18207;32.078;34.818;2023-09-08T11:31:51;0.77;;;0.65;;
23617;SDS011;18207;32.078;34.818;2023-09-08T11:34:25;0.73;;;0.73;;
23617;SDS011;18207;32.078;34.818;2023-09-08T11:36:54;1.02;;;0.90;;
23617;SDS011;18207;32.078;34.818;2023-09-08T11:39:26;0.70;;;0.70;;
23617;SDS011;18207;32.078;34.818;2023-09-08T11:41:57;0.80;;;0.80;;
23617;SDS011;18207;32.078;34.818;2023-09-08T11:44:30;0.52;;;0.52;;
23617;SDS011;18207;32.078;34.818;2023-09-08T11:47:06;0.60;;;0.60;;
23617;SDS011;18207;32.078;34.818;2023-09-08T11:49:40;1.23;;;0.90;;
23617;SDS011;18207;32.078;34.818;2023-09-08T11:52:12;0.85;;;0.85;;
23617;SDS011;18207;32.078;34.818;2023-09-08T11:54:43;0.57;;;0.57;;
23617;SDS011;18207;32.078;34.818;2023-09-08T11:57:32;0.93;;;0.77;;
23617;SDS011;18207;32.078;34.818;2023-09-08T12:00:12;0.90;;;0.90;;
23617;SDS011;18207;32.078;34.818;2023-09-08T12:02:49;0.55;;;0.55;;
23617;SDS011;18207;32.078;34.818;2023-09-08T12:05:23;0.85;;;0.85;;
23617;SDS011;18207;32.078;34.818;2023-09-08T12:07:57;1.00;;;1.00;;
23617;SDS011;18207;32.078;34.818;2023-09-08T12:10:30;0.88;;;0.88;;
23617;SDS011;18207;32.078;34.818;2023-09-08T12:13:06;0.50;;;0.50;;
23617;SDS011;18207;32.078;34.818;2023-09-08T12:15:39;0.60;;;0.60;;
23617;SDS011;18207;32.078;34.818;2023-09-08T12:18:11;0.55;;;0.55;;
23617;SDS011;18207;32.078;34.818;2023-09-08T12:20:45;0.63;;;0.63;;
23617;SDS011;18207;32.078;34.818;2023-09-08T12:23:15;0.70;;;0.70;;
23617;SDS011;18207;32.078;34.818;2023-09-08T12:25:48;0.80;;;0.80;;
23617;SDS011;18207;32.078;34.818;2023-09-08T12:28:20;0.82;;;0.80;;
23617;SDS011;18207;32.078;34.818;2023-09-08T12:30:51;0.55;;;0.55;;
23617;SDS011;18207;32.078;34.818;2023-09-08T12:33:23;0.65;;;0.65;;
23617;SDS011;18207;32.078;34.818;2023-09-08T12:35:57;0.60;;;0.60;;
23617;SDS011;18207;32.078;34.818;2023-09-08T12:38:30;0.80;;;0.80;;
23617;SDS011;18207;32.078;34.818;2023-09-08T12:41:01;0.80;;;0.80;;
23617;SDS011;18207;32.078;34.818;2023-09-08T12:43:31;0.77;;;0.77;;
23617;SDS011;18207;32.078;34.818;2023-09-08T12:46:02;0.82;;;0.82;;
23617;SDS011;18207;32.078;34.818;2023-09-08T12:48:32;1.10;;;1.00;;
23617;SDS011;18207;32.078;34.818;2023-09-08T12:51:06;0.80;;;0.80;;
23617;SDS011;18207;32.078;34.818;2023-09-08T12:53:36;1.00;;;1.00;;
23617;SDS011;18207;32.078;34.818;2023-09-08T12:56:07;0.80;;;0.80;;
23617;SDS011;18207;32.078;34.818;2023-09-08T12:58:37;1.33;;;1.05;;
23617;SDS011;18207;32.078;34.818;2023-09-08T13:01:08;0.93;;;0.93;;
23617;SDS011;18207;32.078;34.818;2023-09-08T13:03:38;1.25;;;1.17;;
23617;SDS011;18207;32.078;34.818;2023-09-08T13:06:10;0.90;;;0.90;;
23617;SDS011;18207;32.078;34.818;2023-09-08T13:08:40;0.85;;;0.85;;
23617;SDS011;18207;32.078;34.818;2023-09-08T13:11:10;0.80;;;0.80;;
23617;SDS011;18207;32.078;34.818;2023-09-08T13:13:41;0.80;;;0.80;;
23617;SDS011;18207;32.078;34.818;2023-09-08T13:16:11;0.60;;;0.60;;
23617;SDS011;18207;32.078;34.818;2023-09-08T13:18:42;0.80;;;0.80;;
23617;SDS011;18207;32.078;34.818;2023-09-08T13:21:14;0.90;;;0.90;;
23617;SDS011;18207;32.078;34.818;2023-09-08T13:23:44;0.90;;;0.90;;
23617;SDS011;18207;32.078;34.818;2023-09-08T13:26:14;0.98;;;0.98;;
23617;SDS011;18207;32.078;34.818;2023-09-08T13:28:45;0.90;;;0.90;;
23617;SDS011;18207;32.078;34.818;2023-09-08T13:31:15;0.73;;;0.68;;
23617;SDS011;18207;32.078;34.818;2023-09-08T13:33:46;0.77;;;0.77;;
23617;SDS011;18207;32.078;34.818;2023-09-08T13:36:19;0.70;;;0.70;;
23617;SDS011;18207;32.078;34.818;2023-09-08T13:38:49;0.68;;;0.68;;
23617;SDS011;18207;32.078;34.818;2023-09-08T13:41:20;0.75;;;0.75;;
23617;SDS011;18207;32.078;34.818;2023-09-08T13:43:51;1.00;;;1.00;;
23617;SDS011;18207;32.078;34.818;2023-09-08T13:46:21;0.90;;;0.90;;
23617;SDS011;18207;32.078;34.818;2023-09-08T13:48:52;0.70;;;0.70;;
23617;SDS011;18207;32.078;34.818;2023-09-08T13:51:25;0.90;;;0.90;;
23617;SDS011;18207;32.078;34.818;2023-09-08T13:54:06;0.80;;;0.80;;
23617;SDS011;18207;32.078;34.818;2023-09-08T13:56:39;0.85;;;0.85;;
23617;SDS011;18207;32.078;34.818;2023-09-08T13:59:11;1.10;;;1.10;;
23617;SDS011;18207;32.078;34.818;2023-09-08T14:01:45;0.73;;;0.73;;
23617;SDS011;18207;32.078;34.818;2023-09-08T14:04:35;0.60;;;0.60;;
23617;SDS011;18207;32.078;34.818;2023-09-08T14:07:11;0.63;;;0.63;;
23617;SDS011;18207;32.078;34.818;2023-09-08T14:09:47;0.90;;;0.90;;
23617;SDS011;18207;32.078;34.818;2023-09-08T14:12:28;0.68;;;0.68;;
23617;SDS011;18207;32.078;34.818;2023-09-08T14:15:01;0.77;;;0.63;;
23617;SDS011;18207;32.078;34.818;2023-09-08T14:17:33;0.77;;;0.77;;
23617;SDS011;18207;32.078;34.818;2023-09-08T14:20:04;0.85;;;0.85;;
23617;SDS011;18207;32.078;34.818;2023-09-08T14:22:38;0.90;;;0.90;;
23617;SDS011;18207;32.078;34.818;2023-09-08T14:25:09;0.88;;;0.88;;
23617;SDS011;18207;32.078;34.818;2023-09-08T14:27:39;0.90;;;0.90;;
23617;SDS011;18207;32.078;34.818;2023-09-08T14:30:10;0.70;;;0.70;;
23617;SDS011;18207;32.078;34.818;2023-09-08T14:32:44;0.60;;;0.60;;
23617;SDS011;18207;32.078;34.818;2023-09-08T14:35:14;0.80;;;0.80;;
23617;SDS011;18207;32.078;34.818;2023-09-08T14:37:48;0.95;;;0.95;;
23617;SDS011;18207;32.078;34.818;2023-09-08T14:40:18;0.90;;;0.90;;
23617;SDS011;18207;32.078;34.818;2023-09-08T14:42:51;0.70;;;0.70;;
23617;SDS011;18207;32.078;34.818;2023-09-08T14:45:21;1.08;;;0.98;;
23617;SDS011;18207;32.078;34.818;2023-09-08T14:47:53;0.90;;;0.90;;
23617;SDS011;18207;32.078;34.818;2023-09-08T14:50:27;1.20;;;1.20;;
23617;SDS011;18207;32.078;34.818;2023-09-08T14:52:59;1.00;;;1.00;;
23617;SDS011;18207;32.078;34.818;2023-09-08T14:55:29;0.88;;;0.88;;
23617;SDS011;18207;32.078;34.818;2023-09-08T14:58:00;1.10;;;1.10;;
23617;SDS011;18207;32.078;34.818;2023-09-08T15:00:31;1.00;;;1.00;;
23617;SDS011;18207;32.078;34.818;2023-09-08T15:03:03;1.15;;;1.10;;
23617;SDS011;18207;32.078;34.818;2023-09-08T15:05:33;1.15;;;1.15;;